Eastern Asia — 3FQP2 — position and weather

sailwx.info

Track history (hours):
 
Tides and Currents Weather Stations Pressure Air Temp Water Temp Dewpoint Dewpoint Depression Visibility Wind Speed Wind Dir Waves Ship Positions

Eastern Asia

Last reported at 2017-Nov-19 18:00 UTC. Time now 2017-Nov-19 18:17 UTC.
Position N 33°37' W 121°28'.

Length 175 m; draft 6.4 m.

Type: Cargo ship. MMSI: 355530000.

Date/timePositionNaut miles runAvg speedWind from/ knotsBaromVisibWave heightAir tempDewpointWater temp
2017-Nov-19 18:00N 33°37' W 121°28'612.9
2017-Nov-19 17:30N 33°37' W 121°35'612.2
2017-Nov-19 16:59N 33°37' W 121°43'612.4
2017-Nov-19 16:30N 33°37' W 121°50'712.4
2017-Nov-19 15:58N 33°37' W 121°58'612.5
2017-Nov-19 15:29N 33°37' W 122°05'612.4
2017-Nov-19 14:59N 33°37' W 122°13'613.1
2017-Nov-19 14:31N 33°37' W 122°20'0 0.9
2017-Nov-19 14:00N 33°37' W 122°21'1 2.5
2017-Nov-19 13:30N 33°37' W 122°19'1312.3
2017-Nov-19 12:25N 33°37' W 122°35'611.6
2017-Nov-19 11:51N 33°37' W 122°43'411.8
2017-Nov-19 11:30N 33°37' W 122°48'711.7
2017-Nov-19 10:55N 33°37' W 122°56'711.5
2017-Nov-19 10:17N 33°37' W 123°05'311.5
2017-Nov-19 10:00N 33°37' W 123°09'6511.9
2017-Nov-19 04:32N 33°38' W 124°27'012.1
2017-Nov-19 04:30N 33°38' W 124°28'1512.0
2017-Nov-19 03:15N 33°45' W 124°43'311.8
2017-Nov-19 02:57N 33°47' W 124°47'511.9
2017-Nov-19 02:30N 33°50' W 124°53'  
Track history (hours):
 
Tides and Currents Weather Stations Pressure Air Temp Water Temp Dewpoint Dewpoint Depression Visibility Wind Speed Wind Dir Waves Ship Positions

Eastern Asia

Last reported at 2017-Nov-19 18:00 UTC. Time now 2017-Nov-19 18:17 UTC.
Position N 33°37' W 121°28'.

Length 175 m; draft 6.4 m.

Type: Cargo ship. MMSI: 355530000.

Date/timePositionNaut miles runAvg speedWind from/ knotsBaromVisibWave heightAir tempDewpointWater temp
2017-Nov-19 18:00N 33°37' W 121°28'612.9
2017-Nov-19 17:30N 33°37' W 121°35'612.2
2017-Nov-19 16:59N 33°37' W 121°43'612.4
2017-Nov-19 16:30N 33°37' W 121°50'712.4
2017-Nov-19 15:58N 33°37' W 121°58'612.5
2017-Nov-19 15:29N 33°37' W 122°05'612.4
2017-Nov-19 14:59N 33°37' W 122°13'613.1
2017-Nov-19 14:31N 33°37' W 122°20'0 0.9
2017-Nov-19 14:00N 33°37' W 122°21'1 2.5
2017-Nov-19 13:30N 33°37' W 122°19'1312.3
2017-Nov-19 12:25N 33°37' W 122°35'611.6
2017-Nov-19 11:51N 33°37' W 122°43'411.8
2017-Nov-19 11:30N 33°37' W 122°48'711.7
2017-Nov-19 10:55N 33°37' W 122°56'711.5
2017-Nov-19 10:17N 33°37' W 123°05'311.5
2017-Nov-19 10:00N 33°37' W 123°09'6511.9
2017-Nov-19 04:32N 33°38' W 124°27'012.1
2017-Nov-19 04:30N 33°38' W 124°28'1512.0
2017-Nov-19 03:15N 33°45' W 124°43'311.8
2017-Nov-19 02:57N 33°47' W 124°47'511.9
2017-Nov-19 02:30N 33°50' W 124°53'  

Dump ship's entire track history